Time;durP1;ratioP1;P1;durP2;ratioP2;P2;SDS_P1;SDS_P2;PMS_P1;PMS_P2;Temp;Humidity;BMP_temperature;BMP_pressure;BME280_temperature;BME280_humidity;BME280_pressure;Samples;Min_cycle;Max_cycle;Signal;HPM_P1;HPM_P2
2023/07/23 00:00:53;;;;;;;8.40;7.40;;;17.10;55.00;;;;;;5048507;28;20529;-51
2023/07/23 00:03:20;;;;;;;8.57;7.70;;;17.00;58.40;;;;;;5046154;28;20558;-51
2023/07/23 00:05:46;;;;;;;8.37;7.53;;;17.00;47.30;;;;;;5048106;28;20485;-50
2023/07/23 00:08:13;;;;;;;17.53;8.50;;;16.90;59.80;;;;;;5045613;28;20489;-49
2023/07/23 00:10:40;;;;;;;10.13;8.77;;;16.90;62.20;;;;;;5047470;28;20525;-50
2023/07/23 00:13:08;;;;;;;12.13;8.50;;;16.90;65.00;;;;;;5045353;28;20508;-51
2023/07/23 00:15:34;;;;;;;9.13;8.23;;;16.90;63.70;;;;;;5043024;28;20566;-51
2023/07/23 00:18:01;;;;;;;8.50;7.70;;;16.90;51.30;;;;;;5036946;28;20553;-50
2023/07/23 00:20:28;;;;;;;12.70;9.10;;;16.80;52.70;;;;;;5041849;28;20572;-49
2023/07/23 00:22:54;;;;;;;9.60;8.03;;;16.80;43.20;;;;;;5047548;28;20458;-49
2023/07/23 00:25:21;;;;;;;11.90;8.60;;;16.70;40.70;;;;;;5046728;28;20536;-50
2023/07/23 00:27:47;;;;;;;8.40;7.53;;;16.70;40.50;;;;;;5048275;28;20490;-50
2023/07/23 00:30:15;;;;;;;10.20;8.00;;;16.70;43.30;;;;;;5049266;28;20563;-49
2023/07/23 00:32:42;;;;;;;11.70;8.07;;;16.60;40.00;;;;;;5054447;28;20462;-50
2023/07/23 00:35:09;;;;;;;8.13;7.27;;;16.60;38.90;;;;;;5048224;28;20459;-50
2023/07/23 00:37:35;;;;;;;12.67;7.90;;;16.50;45.20;;;;;;5051901;28;20564;-50
2023/07/23 00:40:03;;;;;;;8.10;7.30;;;16.50;40.90;;;;;;5045222;28;20543;-50
2023/07/23 00:42:30;;;;;;;8.53;7.83;;;16.50;47.30;;;;;;5051946;28;20543;-49
2023/07/23 00:44:56;;;;;;;8.43;7.53;;;16.50;34.90;;;;;;5041228;28;20522;-50
2023/07/23 00:47:24;;;;;;;9.03;8.13;;;16.60;40.70;;;;;;5053449;28;20490;-50
2023/07/23 00:49:51;;;;;;;10.07;7.80;;;16.50;34.60;;;;;;5045727;28;20895;-49
2023/07/23 00:52:18;;;;;;;10.00;8.07;;;16.50;33.00;;;;;;5045983;28;20458;-50
2023/07/23 00:54:45;;;;;;;8.60;7.37;;;16.50;31.30;;;;;;5049233;28;20493;-50
2023/07/23 00:57:12;;;;;;;8.27;6.83;;;16.50;26.20;;;;;;5047374;28;20513;-51
2023/07/23 00:59:39;;;;;;;8.53;7.73;;;16.50;27.70;;;;;;5052132;28;20577;-50
2023/07/23 01:02:06;;;;;;;8.87;6.93;;;16.40;27.00;;;;;;5047178;28;20452;-50
2023/07/23 01:04:35;;;;;;;7.87;7.07;;;16.40;27.30;;;;;;5047166;28;21054;-51
2023/07/23 01:07:05;;;;;;;10.70;7.63;;;16.40;24.90;;;;;;5046733;28;20459;-51
2023/07/23 01:09:32;;;;;;;7.73;7.03;;;16.40;21.60;;;;;;5052907;28;21006;-50
2023/07/23 01:12:00;;;;;;;16.63;8.70;;;16.40;25.90;;;;;;5052798;28;20457;-49
2023/07/23 01:14:26;;;;;;;8.50;7.20;;;16.30;21.50;;;;;;5044997;28;20469;-49
2023/07/23 01:16:53;;;;;;;8.70;7.80;;;16.30;75.20;;;;;;5050656;28;20526;-50
2023/07/23 01:19:19;;;;;;;9.47;7.63;;;16.30;99.90;;;;;;5050895;28;20516;-50
2023/07/23 01:21:47;;;;;;;8.07;7.17;;;16.20;99.90;;;;;;5050924;28;20472;-50
2023/07/23 01:24:15;;;;;;;17.27;8.97;;;16.20;99.90;;;;;;5047920;28;20489;-50
2023/07/23 01:26:41;;;;;;;7.73;6.93;;;16.20;99.90;;;;;;5052934;28;20486;-50
2023/07/23 01:29:09;;;;;;;7.30;6.70;;;16.10;99.90;;;;;;5042712;28;21003;-49
2023/07/23 01:31:36;;;;;;;9.53;7.63;;;16.10;99.90;;;;;;5047977;28;20458;-49
2023/07/23 01:34:05;;;;;;;9.60;7.53;;;16.10;99.90;;;;;;5041144;28;20985;-49
2023/07/23 01:36:32;;;;;;;8.70;7.83;;;16.10;99.90;;;;;;5048920;28;21109;-49
2023/07/23 01:38:59;;;;;;;9.00;8.20;;;16.00;99.90;;;;;;5049898;28;20497;-50
2023/07/23 01:41:27;;;;;;;10.03;8.60;;;16.00;99.90;;;;;;5049937;28;20500;-51
2023/07/23 01:43:53;;;;;;;15.53;8.13;;;15.90;99.90;;;;;;5049077;28;20541;-51
2023/07/23 01:46:20;;;;;;;11.83;8.33;;;15.90;99.90;;;;;;5042005;28;20946;-49
2023/07/23 01:48:46;;;;;;;9.40;8.17;;;15.90;99.90;;;;;;5045704;28;20485;-49
2023/07/23 01:51:13;;;;;;;8.23;7.33;;;15.90;99.90;;;;;;5050374;28;20450;-50
2023/07/23 01:53:39;;;;;;;8.80;7.97;;;15.90;99.90;;;;;;5046968;28;20544;-50
2023/07/23 01:56:06;;;;;;;10.23;8.40;;;15.90;99.90;;;;;;5045194;28;20514;-50
2023/07/23 01:58:34;;;;;;;8.93;8.03;;;15.90;99.90;;;;;;5051709;28;20515;-50
2023/07/23 02:01:00;;;;;;;9.10;8.20;;;15.90;99.90;;;;;;5052320;28;20571;-51
2023/07/23 02:03:27;;;;;;;9.97;8.60;;;15.90;99.90;;;;;;5049513;28;20474;-49
2023/07/23 02:05:56;;;;;;;8.80;8.00;;;15.80;99.80;;;;;;5041555;28;20502;-50
2023/07/23 02:08:23;;;;;;;9.60;8.70;;;15.70;79.10;;;;;;5049026;28;20458;-49
2023/07/23 02:10:49;;;;;;;17.53;7.70;;;15.70;54.10;;;;;;5048393;28;20510;-49
2023/07/23 02:13:16;;;;;;;9.70;8.80;;;15.60;40.30;;;;;;5047408;28;20486;-50
2023/07/23 02:15:44;;;;;;;9.50;8.60;;;15.60;29.80;;;;;;5048225;28;20545;-50
2023/07/23 02:18:10;;;;;;;9.90;8.87;;;15.50;99.90;;;;;;5048994;28;20835;-51
2023/07/23 02:20:37;;;;;;;10.10;8.90;;;15.50;99.90;;;;;;5044958;28;20589;-51
2023/07/23 02:23:03;;;;;;;9.60;8.70;;;15.40;99.90;;;;;;5050768;28;20454;-49
2023/07/23 02:25:30;;;;;;;11.03;9.33;;;15.30;99.90;;;;;;5050539;28;20457;-51
2023/07/23 02:27:56;;;;;;;9.33;8.47;;;15.30;99.90;;;;;;5049890;28;20916;-50
2023/07/23 02:30:23;;;;;;;10.17;9.20;;;15.20;99.90;;;;;;5048492;28;20485;-50
2023/07/23 02:32:51;;;;;;;9.03;8.23;;;15.20;99.90;;;;;;5051528;28;20512;-50
2023/07/23 02:35:17;;;;;;;9.13;8.33;;;15.20;99.90;;;;;;5042666;28;20466;-50
2023/07/23 02:37:44;;;;;;;9.67;8.80;;;15.10;99.90;;;;;;5047832;28;20597;-50
2023/07/23 02:40:12;;;;;;;9.97;8.87;;;15.00;99.90;;;;;;5063693;22;20522;-52
2023/07/23 02:42:40;;;;;;;10.67;9.60;;;15.00;99.90;;;;;;5050293;28;20493;-52
2023/07/23 02:45:08;;;;;;;10.03;9.03;;;15.00;99.90;;;;;;5045709;28;20520;-53
2023/07/23 02:47:34;;;;;;;12.57;9.43;;;15.00;99.90;;;;;;5049926;28;20550;-51
2023/07/23 02:50:03;;;;;;;12.43;9.80;;;14.90;99.90;;;;;;5054675;28;20920;-52
2023/07/23 02:52:29;;;;;;;13.70;9.83;;;14.90;99.90;;;;;;5050334;28;20462;-52
2023/07/23 02:54:56;;;;;;;9.93;9.03;;;14.90;99.90;;;;;;5048251;28;20515;-52
2023/07/23 02:57:22;;;;;;;11.33;9.30;;;14.90;99.90;;;;;;5044459;28;21042;-52
2023/07/23 02:59:49;;;;;;;13.60;9.20;;;14.90;99.90;;;;;;5048757;28;20505;-53
2023/07/23 03:02:15;;;;;;;10.27;8.73;;;14.90;94.10;;;;;;5051815;28;20529;-51
2023/07/23 03:04:42;;;;;;;10.07;8.93;;;14.90;93.60;;;;;;5048351;28;20978;-52
2023/07/23 03:07:10;;;;;;;9.77;8.77;;;14.90;90.50;;;;;;5051651;28;20458;-53
2023/07/23 03:09:37;;;;;;;11.43;10.33;;;14.80;88.90;;;;;;5050665;28;20493;-52
2023/07/23 03:12:04;;;;;;;10.33;9.33;;;14.70;91.40;;;;;;5047948;28;20550;-52
2023/07/23 03:14:31;;;;;;;9.97;9.10;;;14.70;89.00;;;;;;5050937;28;20534;-52
2023/07/23 03:16:57;;;;;;;10.70;9.60;;;14.70;86.30;;;;;;5043869;28;20577;-53
2023/07/23 03:19:24;;;;;;;10.27;9.27;;;14.70;83.90;;;;;;5042391;28;20494;-52
2023/07/23 03:21:50;;;;;;;9.83;8.83;;;14.70;82.80;;;;;;5048466;28;20577;-52
2023/07/23 03:24:18;;;;;;;16.00;9.63;;;14.60;85.00;;;;;;5048564;28;20994;-53
2023/07/23 03:26:44;;;;;;;11.30;9.60;;;14.60;82.90;;;;;;5051915;28;20549;-52
2023/07/23 03:29:11;;;;;;;10.03;9.03;;;14.60;81.00;;;;;;5049182;28;20485;-52
2023/07/23 03:31:37;;;;;;;10.73;8.93;;;14.60;79.50;;;;;;5048110;28;20553;-52
2023/07/23 03:34:04;;;;;;;12.60;9.70;;;14.60;78.20;;;;;;5043419;28;20478;-52
2023/07/23 03:36:31;;;;;;;10.90;9.80;;;14.60;76.70;;;;;;5046744;28;20486;-52
2023/07/23 03:38:57;;;;;;;10.37;9.30;;;14.60;75.60;;;;;;5045432;28;20493;-51
2023/07/23 03:41:25;;;;;;;11.40;9.30;;;14.60;75.90;;;;;;5050925;28;20512;-51
2023/07/23 03:43:52;;;;;;;11.73;9.37;;;14.60;73.10;;;;;;5047767;28;20466;-51
2023/07/23 03:46:19;;;;;;;14.43;10.20;;;14.60;73.20;;;;;;5041903;28;20462;-52
2023/07/23 03:48:47;;;;;;;10.30;9.30;;;14.60;71.30;;;;;;5051970;28;20482;-51
2023/07/23 03:51:15;;;;;;;11.70;9.17;;;14.60;70.20;;;;;;5053968;28;20477;-51
2023/07/23 03:53:42;;;;;;;12.47;9.77;;;14.60;69.50;;;;;;5048984;28;20458;-51
2023/07/23 03:56:08;;;;;;;10.20;9.30;;;14.50;70.10;;;;;;5048829;28;20555;-53
2023/07/23 03:58:36;;;;;;;10.33;9.43;;;14.60;69.00;;;;;;5050209;28;20514;-51
2023/07/23 04:01:03;;;;;;;11.90;9.63;;;14.60;68.30;;;;;;5042095;28;21049;-51
2023/07/23 04:03:29;;;;;;;10.87;9.80;;;14.60;67.40;;;;;;5046439;28;20465;-52
2023/07/23 04:05:57;;;;;;;11.50;9.43;;;14.60;65.50;;;;;;5048112;28;20493;-52
2023/07/23 04:08:23;;;;;;;12.83;9.80;;;14.60;66.60;;;;;;5051015;28;20492;-52
2023/07/23 04:10:50;;;;;;;10.45;9.35;;;14.60;66.20;;;;;;5042165;28;20492;-52
2023/07/23 04:13:16;;;;;;;9.80;8.33;;;14.60;66.50;;;;;;5047160;28;20227;-51
2023/07/23 04:15:44;;;;;;;9.83;8.83;;;14.60;66.60;;;;;;5049502;28;20493;-52
2023/07/23 04:18:13;;;;;;;9.60;8.70;;;14.60;65.80;;;;;;5044535;28;20517;-51
2023/07/23 04:20:40;;;;;;;8.87;8.03;;;14.70;63.10;;;;;;5046778;28;20525;-51
2023/07/23 04:23:07;;;;;;;10.53;9.57;;;14.80;63.60;;;;;;5049889;28;20462;-52
2023/07/23 04:25:33;;;;;;;13.13;9.60;;;14.80;63.70;;;;;;5049732;28;20853;-52
2023/07/23 04:28:00;;;;;;;9.47;8.67;;;14.80;62.90;;;;;;5050100;28;21042;-53
2023/07/23 04:30:28;;;;;;;10.10;9.10;;;14.80;63.50;;;;;;5041499;28;20517;-52
2023/07/23 04:32:57;;;;;;;23.63;10.00;;;14.80;64.40;;;;;;5048612;28;20873;-52
2023/07/23 04:35:24;;;;;;;12.10;9.60;;;14.80;66.50;;;;;;5049436;28;20462;-51
2023/07/23 04:37:50;;;;;;;10.97;9.87;;;14.80;66.80;;;;;;5051471;28;20488;-51
2023/07/23 04:40:17;;;;;;;10.70;9.60;;;14.80;67.40;;;;;;5049984;28;20521;-52
2023/07/23 04:42:44;;;;;;;14.67;9.30;;;14.80;68.10;;;;;;5049510;28;20494;-52
2023/07/23 04:45:10;;;;;;;11.60;9.00;;;14.80;69.90;;;;;;5041854;28;20517;-51
2023/07/23 04:47:39;;;;;;;10.60;9.53;;;14.90;69.80;;;;;;5046681;28;20504;-52
2023/07/23 04:50:08;;;;;;;10.90;9.80;;;14.90;69.20;;;;;;5049260;28;20481;-51
2023/07/23 04:52:35;;;;;;;13.10;9.10;;;14.80;71.10;;;;;;5049375;28;20888;-52
2023/07/23 04:55:02;;;;;;;9.93;9.03;;;14.80;73.70;;;;;;5049582;28;21055;-51
2023/07/23 04:57:29;;;;;;;10.07;9.07;;;14.90;73.40;;;;;;5050212;28;20485;-52
2023/07/23 04:59:55;;;;;;;11.20;9.97;;;14.90;73.30;;;;;;5048980;28;20486;-52
2023/07/23 05:02:22;;;;;;;8.87;7.97;;;15.00;72.60;;;;;;5043344;28;20963;-51
2023/07/23 05:04:49;;;;;;;13.40;8.97;;;15.00;72.80;;;;;;5045058;28;20624;-51
2023/07/23 05:07:16;;;;;;;9.50;8.50;;;15.10;73.00;;;;;;5048833;28;20477;-52
2023/07/23 05:09:43;;;;;;;9.73;8.50;;;15.10;76.70;;;;;;5048411;28;20512;-51
2023/07/23 05:12:10;;;;;;;11.10;9.70;;;15.10;74.40;;;;;;5047846;28;20454;-52
2023/07/23 05:14:36;;;;;;;10.63;9.60;;;15.10;76.00;;;;;;5047602;28;20478;-51
2023/07/23 05:17:03;;;;;;;9.63;8.73;;;15.10;75.10;;;;;;5041068;28;20500;-53
2023/07/23 05:19:30;;;;;;;8.83;8.03;;;15.20;75.20;;;;;;5052795;28;20513;-52
2023/07/23 05:21:56;;;;;;;10.37;9.23;;;15.30;75.30;;;;;;5050895;28;20524;-51
2023/07/23 05:24:24;;;;;;;12.67;8.50;;;15.30;75.00;;;;;;5048168;28;20872;-51
2023/07/23 05:26:51;;;;;;;10.50;9.50;;;15.30;80.40;;;;;;5045193;28;20903;-50
2023/07/23 05:29:17;;;;;;;20.00;9.87;;;15.30;82.80;;;;;;5054268;28;20508;-51
2023/07/23 05:31:44;;;;;;;11.13;10.03;;;15.40;85.60;;;;;;5049899;28;20493;-51
2023/07/23 05:34:10;;;;;;;12.13;9.60;;;15.40;88.40;;;;;;5052362;28;20493;-51
2023/07/23 05:36:37;;;;;;;9.03;8.13;;;15.40;93.30;;;;;;5052537;28;20526;-53
2023/07/23 05:39:04;;;;;;;9.17;8.27;;;15.30;97.50;;;;;;5054210;28;20561;-52
2023/07/23 05:41:31;;;;;;;8.90;7.93;;;15.40;99.90;;;;;;5052035;28;21014;-51
2023/07/23 05:43:58;;;;;;;9.00;8.10;;;15.40;99.90;;;;;;5051126;28;20498;-52
2023/07/23 05:46:24;;;;;;;10.93;8.17;;;15.40;99.90;;;;;;5053137;28;20497;-52
2023/07/23 05:48:51;;;;;;;10.33;9.10;;;15.40;99.90;;;;;;5052390;28;20892;-52
2023/07/23 05:51:17;;;;;;;12.87;10.40;;;15.50;99.90;;;;;;5045160;28;20513;-52
2023/07/23 05:53:44;;;;;;;10.27;9.10;;;15.50;99.90;;;;;;5050070;28;20983;-52
2023/07/23 05:56:11;;;;;;;10.90;9.33;;;15.60;99.90;;;;;;5046766;28;20959;-52
2023/07/23 05:58:39;;;;;;;8.87;7.90;;;15.60;99.90;;;;;;5052352;28;20565;-52
2023/07/23 06:01:05;;;;;;;9.67;8.63;;;15.60;99.90;;;;;;5051659;28;20516;-51
2023/07/23 06:03:32;;;;;;;9.37;8.43;;;15.60;99.90;;;;;;5044690;28;20493;-53
2023/07/23 06:05:58;;;;;;;10.30;8.50;;;15.70;99.90;;;;;;5051647;28;20490;-53
2023/07/23 06:08:25;;;;;;;9.83;8.70;;;15.70;99.90;;;;;;5050578;28;21023;-53
2023/07/23 06:10:51;;;;;;;9.73;8.10;;;15.80;99.90;;;;;;5052912;28;20505;-51
2023/07/23 06:13:18;;;;;;;8.33;7.53;;;15.90;99.90;;;;;;5051294;28;20540;-53
2023/07/23 06:15:46;;;;;;;10.23;9.23;;;15.90;99.90;;;;;;5048456;28;20496;-53
2023/07/23 06:18:12;;;;;;;13.60;9.07;;;16.00;99.90;;;;;;5050993;28;20512;-51
2023/07/23 06:20:39;;;;;;;10.60;9.50;;;16.10;99.90;;;;;;5051594;28;20900;-52
2023/07/23 06:23:05;;;;;;;16.60;8.60;;;16.10;99.90;;;;;;5051019;28;20486;-52
2023/07/23 06:25:32;;;;;;;9.13;8.20;;;16.20;99.90;;;;;;5047765;28;20508;-52
2023/07/23 06:27:58;;;;;;;15.43;8.43;;;16.20;99.90;;;;;;5050935;28;20458;-52
2023/07/23 06:30:25;;;;;;;17.10;8.60;;;16.30;99.90;;;;;;5053011;28;20493;-52
2023/07/23 06:32:53;;;;;;;9.60;8.40;;;16.30;99.90;;;;;;5050302;28;20486;-52
2023/07/23 06:35:18;;;;;;;9.97;8.90;;;16.40;99.90;;;;;;5050506;28;20549;-53
2023/07/23 06:37:45;;;;;;;8.20;7.30;;;16.40;99.90;;;;;;5049943;28;20588;-52
2023/07/23 06:40:12;;;;;;;7.53;6.80;;;16.50;99.90;;;;;;5051510;28;20708;-51
2023/07/23 06:42:38;;;;;;;12.40;7.23;;;16.50;99.90;;;;;;5049357;28;20462;-51
2023/07/23 06:45:05;;;;;;;8.50;6.83;;;16.60;99.90;;;;;;5050688;28;20561;-51
2023/07/23 06:47:32;;;;;;;7.67;6.97;;;16.60;99.90;;;;;;5049491;28;20487;-51
2023/07/23 06:50:00;;;;;;;11.87;7.33;;;16.70;99.90;;;;;;5050176;28;20512;-51
2023/07/23 06:52:27;;;;;;;9.93;7.80;;;16.80;99.90;;;;;;5054785;28;20501;-52
2023/07/23 06:54:54;;;;;;;8.60;7.10;;;16.90;99.90;;;;;;5047959;28;21015;-52
2023/07/23 06:57:20;;;;;;;8.33;7.40;;;17.00;99.90;;;;;;5051177;28;20493;-52
2023/07/23 06:59:48;;;;;;;9.53;7.30;;;17.00;99.90;;;;;;5049848;28;21054;-52
2023/07/23 07:02:15;;;;;;;9.40;7.57;;;17.10;99.90;;;;;;5050995;28;21017;-52
2023/07/23 07:04:41;;;;;;;9.00;7.37;;;17.10;99.90;;;;;;5049439;28;20466;-51
2023/07/23 07:07:09;;;;;;;10.50;7.67;;;17.30;99.90;;;;;;5049056;28;20970;-51
2023/07/23 07:09:36;;;;;;;8.47;7.63;;;17.30;82.00;;;;;;5045411;28;20557;-52
2023/07/23 07:12:02;;;;;;;8.87;6.97;;;17.40;99.90;;;;;;5050081;28;20489;-52
2023/07/23 07:14:29;;;;;;;8.87;7.53;;;17.50;41.00;;;;;;5041203;28;20518;-52
2023/07/23 07:16:56;;;;;;;8.17;7.00;;;17.70;37.00;;;;;;5045171;28;22185;-52
2023/07/23 07:19:22;;;;;;;10.27;6.70;;;17.90;41.60;;;;;;5051578;28;20485;-51
2023/07/23 07:21:50;;;;;;;8.03;6.50;;;18.00;70.70;;;;;;5045756;28;20500;-52
2023/07/23 07:24:18;;;;;;;8.13;6.67;;;18.10;86.00;;;;;;5046293;28;20462;-51
2023/07/23 07:26:45;;;;;;;7.00;6.30;;;18.30;72.50;;;;;;5050994;28;20858;-52
2023/07/23 07:29:11;;;;;;;8.63;5.97;;;18.50;70.80;;;;;;5047328;28;20539;-52
2023/07/23 07:31:38;;;;;;;7.23;6.10;;;18.60;99.90;;;;;;5047826;28;20578;-52
2023/07/23 07:34:04;;;;;;;6.63;5.93;;;18.70;99.90;;;;;;5046623;28;21010;-53
2023/07/23 07:36:31;;;;;;;8.67;6.67;;;18.90;99.90;;;;;;5053744;28;20493;-52
2023/07/23 07:38:57;;;;;;;8.47;7.00;;;18.90;99.90;;;;;;5044880;28;20517;-52
2023/07/23 07:41:25;;;;;;;8.83;5.90;;;18.90;99.90;;;;;;5047693;28;21006;-53
2023/07/23 07:43:52;;;;;;;9.63;6.00;;;19.00;99.90;;;;;;5047027;28;20516;-53
2023/07/23 07:46:18;;;;;;;8.60;6.80;;;19.00;99.90;;;;;;5048826;28;20471;-52
2023/07/23 07:48:45;;;;;;;9.37;5.97;;;19.00;99.90;;;;;;5047430;28;20540;-52
2023/07/23 07:51:11;;;;;;;5.97;5.43;;;19.10;99.90;;;;;;5049038;28;20481;-52
2023/07/23 07:53:38;;;;;;;8.00;6.23;;;19.10;99.90;;;;;;5048376;28;20462;-52
2023/07/23 07:56:07;;;;;;;6.97;5.97;;;19.10;99.90;;;;;;5048975;28;20462;-51
2023/07/23 07:58:36;;;;;;;7.00;4.83;;;19.20;99.90;;;;;;5048086;28;20489;-52
2023/07/23 08:01:03;;;;;;;9.97;4.97;;;19.20;99.90;;;;;;5048126;28;20568;-51
2023/07/23 08:03:31;;;;;;;7.37;5.07;;;19.20;99.90;;;;;;5045129;28;20491;-52
2023/07/23 08:05:59;;;;;;;5.63;4.90;;;19.20;99.90;;;;;;5048369;28;20482;-52
2023/07/23 08:08:27;;;;;;;5.30;4.80;;;19.20;99.90;;;;;;5047763;28;20544;-51
2023/07/23 08:10:55;;;;;;;6.60;4.77;;;19.20;99.90;;;;;;5046809;28;20531;-52
2023/07/23 08:13:22;;;;;;;5.53;5.03;;;19.20;99.90;;;;;;5048063;28;20470;-52
2023/07/23 08:15:50;;;;;;;6.03;4.80;;;19.20;99.90;;;;;;5044560;28;20500;-52
2023/07/23 08:18:17;;;;;;;6.23;5.00;;;19.20;99.90;;;;;;5049700;28;20518;-52
2023/07/23 08:20:44;;;;;;;5.37;4.90;;;19.20;99.90;;;;;;5049012;28;20478;-52
2023/07/23 08:23:11;;;;;;;5.53;5.03;;;19.20;99.90;;;;;;5042717;28;20548;-52
2023/07/23 08:25:39;;;;;;;5.63;5.00;;;19.30;99.90;;;;;;5042458;28;20548;-52
2023/07/23 08:28:07;;;;;;;4.83;4.30;;;19.30;99.90;;;;;;5045473;28;20561;-52
2023/07/23 08:30:34;;;;;;;7.00;5.00;;;19.40;99.90;;;;;;5041820;28;20926;-51
2023/07/23 08:33:03;;;;;;;9.33;4.83;;;19.40;99.90;;;;;;5044091;28;20570;-53
2023/07/23 08:35:30;;;;;;;6.37;5.77;;;19.50;99.90;;;;;;5041986;28;20515;-52
2023/07/23 08:37:57;;;;;;;6.97;4.37;;;19.50;99.90;;;;;;5042422;28;20483;-53
2023/07/23 08:40:26;;;;;;;5.37;4.87;;;19.50;99.90;;;;;;5045179;28;21057;-52
2023/07/23 08:43:29;;;;;;;4.70;4.30;;;19.50;99.90;;;;;;5041828;28;20493;-52
2023/07/23 08:46:21;;;;;;;6.47;5.00;;;19.50;99.90;;;;;;5039611;28;20504;-52
2023/07/23 08:49:05;;;;;;;6.30;5.20;;;19.50;99.90;;;;;;5040829;28;20458;-52
2023/07/23 08:51:34;;;;;;;6.97;5.27;;;19.50;99.90;;;;;;5049556;28;21067;-52
2023/07/23 08:54:03;;;;;;;8.30;6.07;;;19.50;99.90;;;;;;5051888;28;20461;-51
2023/07/23 08:56:29;;;;;;;6.33;4.90;;;19.50;99.90;;;;;;5049924;28;20468;-53
2023/07/23 08:58:58;;;;;;;5.97;5.37;;;19.60;99.90;;;;;;5050297;28;20569;-52
2023/07/23 09:01:25;;;;;;;6.17;5.57;;;19.60;99.90;;;;;;5050850;28;20516;-52
2023/07/23 09:03:52;;;;;;;6.70;5.87;;;19.60;99.90;;;;;;5045120;28;20543;-53
2023/07/23 09:06:20;;;;;;;6.33;5.60;;;19.70;99.90;;;;;;5049182;28;20541;-52
2023/07/23 09:08:46;;;;;;;6.47;5.87;;;19.80;99.90;;;;;;5048876;28;20490;-52
2023/07/23 09:11:13;;;;;;;5.93;5.33;;;19.90;99.90;;;;;;5053351;28;20516;-52
2023/07/23 09:13:39;;;;;;;9.03;5.00;;;20.00;99.90;;;;;;5051131;28;20496;-52
2023/07/23 09:16:06;;;;;;;11.30;4.80;;;20.10;25.00;;;;;;5053490;28;20485;-52
2023/07/23 09:18:38;;;;;;;6.50;5.83;;;20.20;20.00;;;;;;5045273;28;20493;-52
2023/07/23 09:21:04;;;;;;;6.87;5.53;;;20.30;26.60;;;;;;5053451;28;21012;-52
2023/07/23 09:23:33;;;;;;;7.10;5.30;;;20.40;48.50;;;;;;5046609;28;20474;-50
2023/07/23 09:26:01;;;;;;;7.87;4.70;;;20.60;47.60;;;;;;5054175;28;20493;-52
2023/07/23 09:28:27;;;;;;;5.57;4.77;;;20.60;79.00;;;;;;5048798;28;20501;-52
2023/07/23 09:30:55;;;;;;;6.77;5.60;;;20.80;75.20;;;;;;5050055;28;20903;-52
2023/07/23 09:33:21;;;;;;;7.43;5.67;;;21.10;88.40;;;;;;5048836;28;20470;-51
2023/07/23 09:35:48;;;;;;;6.17;5.57;;;21.10;99.90;;;;;;5043939;28;20505;-52
2023/07/23 09:38:14;;;;;;;5.87;4.97;;;21.50;99.90;;;;;;5048311;28;20493;-53
2023/07/23 09:40:44;;;;;;;7.13;4.80;;;21.70;99.90;;;;;;5051061;28;20515;-52
2023/07/23 09:43:10;;;;;;;6.53;4.27;;;22.00;99.90;;;;;;5043088;28;20540;-52
2023/07/23 09:45:39;;;;;;;5.93;5.33;;;22.20;99.90;;;;;;5039674;28;20553;-51
2023/07/23 09:48:07;;;;;;;6.67;4.50;;;22.20;99.90;;;;;;5047358;28;20454;-52
2023/07/23 09:50:34;;;;;;;6.13;4.63;;;22.30;99.90;;;;;;5055451;28;20509;-52
2023/07/23 09:53:00;;;;;;;7.57;4.50;;;22.30;99.90;;;;;;5044828;28;20502;-52
2023/07/23 09:55:27;;;;;;;8.80;5.00;;;22.40;99.90;;;;;;5050956;28;20497;-51
2023/07/23 09:57:55;;;;;;;4.70;4.27;;;22.40;99.90;;;;;;5049436;28;20497;-51
2023/07/23 10:00:24;;;;;;;6.60;4.40;;;22.50;99.90;;;;;;5048248;28;20576;-52
2023/07/23 10:02:51;;;;;;;5.47;4.53;;;22.80;99.90;;;;;;5049904;28;20843;-53
2023/07/23 10:05:19;;;;;;;5.20;4.37;;;22.90;99.90;;;;;;5050912;28;20541;-51
2023/07/23 10:07:47;;;;;;;5.23;4.73;;;23.00;99.90;;;;;;5050260;28;20482;-52
2023/07/23 10:10:14;;;;;;;4.33;3.93;;;23.20;99.90;;;;;;5050104;28;20476;-52
2023/07/23 10:12:41;;;;;;;4.87;4.00;;;23.20;99.90;;;;;;5049978;28;20506;-52
2023/07/23 10:15:10;;;;;;;4.67;4.30;;;23.40;99.90;;;;;;5051405;28;21008;-52
2023/07/23 10:17:40;;;;;;;4.97;4.47;;;23.50;99.90;;;;;;5048064;28;20482;-52
2023/07/23 10:20:08;;;;;;;5.60;4.63;;;23.50;99.90;;;;;;5049577;28;20573;-51
2023/07/23 10:22:37;;;;;;;4.60;4.20;;;23.50;99.90;;;;;;5050241;28;20822;-52
2023/07/23 10:25:23;;;;;;;9.43;5.23;;;23.20;99.90;;;;;;5048123;28;20466;-52
2023/07/23 10:27:56;;;;;;;6.03;4.90;;;23.20;99.90;;;;;;5048519;28;20461;-52
2023/07/23 10:30:25;;;;;;;5.33;4.83;;;23.40;99.90;;;;;;5051283;28;20560;-53
2023/07/23 10:33:34;;;;;;;11.20;3.80;;;23.60;99.90;;;;;;5050435;28;20528;-51
2023/07/23 10:36:03;;;;;;;4.73;4.33;;;23.80;99.90;;;;;;5049030;28;20468;-53
2023/07/23 10:38:31;;;;;;;6.00;4.50;;;24.20;99.90;;;;;;5044568;28;20474;-52
2023/07/23 10:40:59;;;;;;;5.10;4.60;;;24.10;99.90;;;;;;5047060;28;20528;-51
2023/07/23 10:43:38;;;;;;;9.57;4.67;;;24.20;99.90;;;;;;5048290;28;20511;-52
2023/07/23 10:46:07;;;;;;;4.27;3.83;;;24.40;99.90;;;;;;5044279;28;20465;-53
2023/07/23 10:48:42;;;;;;;7.20;4.40;;;24.40;99.90;;;;;;5047528;28;20468;-52
2023/07/23 10:51:10;;;;;;;5.00;4.50;;;24.60;99.90;;;;;;5049437;28;21120;-53
2023/07/23 10:53:41;;;;;;;6.07;4.27;;;24.70;99.90;;;;;;5051066;28;20482;-52
2023/07/23 10:56:25;;;;;;;4.93;4.37;;;24.30;99.90;;;;;;5050352;28;20537;-52
2023/07/23 10:58:55;;;;;;;8.10;4.70;;;24.10;99.90;;;;;;5047659;28;20536;-52
2023/07/23 11:01:25;;;;;;;9.83;4.70;;;24.10;99.90;;;;;;5041313;28;21011;-52
2023/07/23 11:03:56;;;;;;;10.73;4.50;;;24.10;99.90;;;;;;5045735;28;20679;-52
2023/07/23 11:06:26;;;;;;;4.67;3.70;;;24.10;99.90;;;;;;5048312;28;20458;-52
2023/07/23 11:08:53;;;;;;;7.47;4.63;;;24.40;99.90;;;;;;5048461;28;20490;-52
2023/07/23 11:11:28;;;;;;;5.20;4.37;;;24.40;99.90;;;;;;5046640;28;20669;-51
2023/07/23 11:13:55;;;;;;;11.23;3.83;;;24.20;99.90;;;;;;5049166;28;20497;-53
2023/07/23 11:16:21;;;;;;;4.70;4.30;;;24.10;99.90;;;;;;5048486;28;20924;-52
2023/07/23 11:18:50;;;;;;;5.20;4.70;;;24.40;99.90;;;;;;5051399;28;21014;-51
2023/07/23 11:21:17;;;;;;;6.70;4.33;;;24.30;99.90;;;;;;5050821;28;20528;-52
2023/07/23 11:23:43;;;;;;;5.20;4.70;;;24.30;99.90;;;;;;5047305;28;20527;-51
2023/07/23 11:26:10;;;;;;;5.30;4.53;;;24.30;99.90;;;;;;5049631;28;20461;-52
2023/07/23 11:28:38;;;;;;;4.70;4.30;;;24.30;99.90;;;;;;5050626;28;20585;-52
2023/07/23 11:31:05;;;;;;;5.13;4.40;;;24.50;99.90;;;;;;5045237;28;20563;-53
2023/07/23 11:33:33;;;;;;;4.90;4.50;;;24.80;99.90;;;;;;5043970;28;20494;-52
2023/07/23 11:36:01;;;;;;;7.33;4.87;;;25.00;99.90;;;;;;5057347;28;20979;-52
2023/07/23 11:38:28;;;;;;;5.03;4.60;;;25.20;99.90;;;;;;5043164;28;20899;-52
2023/07/23 11:40:57;;;;;;;9.27;5.07;;;25.60;99.90;;;;;;5048453;28;20529;-51
2023/07/23 11:43:24;;;;;;;5.80;4.90;;;25.60;99.90;;;;;;5050442;28;20834;-52
2023/07/23 11:45:51;;;;;;;6.30;4.37;;;25.60;99.90;;;;;;5051704;28;20490;-52
2023/07/23 11:48:20;;;;;;;4.87;4.40;;;25.60;99.90;;;;;;5050379;28;20454;-53
2023/07/23 11:50:47;;;;;;;5.00;4.50;;;25.90;99.90;;;;;;5055050;28;20514;-52
2023/07/23 11:53:29;;;;;;;11.67;4.00;;;26.10;99.90;;;;;;5039845;28;20875;-52
2023/07/23 11:56:06;;;;;;;4.30;4.00;;;26.00;99.90;;;;;;5046962;28;20500;-51
2023/07/23 11:58:34;;;;;;;4.80;4.30;;;26.20;99.90;;;;;;5051138;28;20489;-52
2023/07/23 12:01:02;;;;;;;11.63;4.57;;;26.30;99.90;;;;;;5041782;28;20499;-52
2023/07/23 12:03:28;;;;;;;4.50;4.10;;;26.20;99.90;;;;;;5049678;28;20894;-52
2023/07/23 12:05:56;;;;;;;3.83;3.60;;;26.10;99.90;;;;;;5051592;28;20496;-52
2023/07/23 12:08:24;;;;;;;4.10;3.80;;;26.30;99.90;;;;;;5050116;28;20906;-52
2023/07/23 12:10:50;;;;;;;5.37;3.70;;;26.00;99.90;;;;;;5047672;28;20517;-51
2023/07/23 12:13:17;;;;;;;9.90;3.87;;;25.80;99.90;;;;;;5049630;28;20493;-52
2023/07/23 12:15:49;;;;;;;4.60;4.20;;;25.60;99.90;;;;;;5047944;28;20488;-53
2023/07/23 12:18:16;;;;;;;6.60;3.67;;;25.50;99.90;;;;;;5050181;28;20508;-52
2023/07/23 12:20:44;;;;;;;3.97;3.60;;;25.50;99.90;;;;;;5054901;28;20563;-53
2023/07/23 12:23:14;;;;;;;17.80;3.90;;;25.60;99.90;;;;;;5047091;28;20501;-52
2023/07/23 12:25:41;;;;;;;6.27;3.37;;;25.60;99.90;;;;;;5042971;28;21006;-52
2023/07/23 12:28:08;;;;;;;9.67;4.00;;;25.50;99.90;;;;;;5051703;28;20486;-52
2023/07/23 12:30:35;;;;;;;9.93;3.63;;;25.50;99.90;;;;;;5055101;28;20465;-53
2023/07/23 12:33:01;;;;;;;3.90;3.20;;;25.60;99.90;;;;;;5052136;28;20967;-53
2023/07/23 12:35:28;;;;;;;14.60;3.67;;;25.70;99.90;;;;;;5054391;28;20492;-52
2023/07/23 12:37:54;;;;;;;4.00;3.60;;;25.70;99.90;;;;;;5052585;28;20493;-54
2023/07/23 12:40:21;;;;;;;5.37;3.40;;;25.80;99.90;;;;;;5048504;28;20517;-53
2023/07/23 12:42:49;;;;;;;5.30;3.60;;;25.80;99.90;;;;;;5052234;28;20486;-53
2023/07/23 12:45:15;;;;;;;4.27;3.87;;;25.70;99.90;;;;;;5048471;28;20485;-53